Time;durP1;ratioP1;P1;durP2;ratioP2;P2;SDS_P1;SDS_P2;PMS_P1;PMS_P2;Temp;Humidity;BMP_temperature;BMP_pressure;BME280_temperature;BME280_humidity;BME280_pressure;Samples;Min_cycle;Max_cycle;Signal;HPM_P1;HPM_P2
2022/03/10 00:00:10;;;;;;;20.97;10.33;;;-4.70;99.90;;;;;;5091780;28;20188;-59
2022/03/10 00:02:35;;;;;;;28.43;11.47;;;-4.70;99.90;;;;;;5092730;28;20273;-59
2022/03/10 00:05:02;;;;;;;25.97;11.37;;;-4.60;99.90;;;;;;5091831;28;20310;-57
2022/03/10 00:07:28;;;;;;;30.17;13.03;;;-4.50;99.90;;;;;;5092411;28;20183;-59
2022/03/10 00:09:54;;;;;;;28.17;13.07;;;-4.40;99.90;;;;;;5092314;28;20176;-62
2022/03/10 00:12:20;;;;;;;33.83;14.17;;;-4.20;99.90;;;;;;5074132;28;20187;-57
2022/03/10 00:14:46;;;;;;;30.63;13.43;;;-4.10;99.90;;;;;;5092009;28;20215;-56
2022/03/10 00:17:12;;;;;;;35.33;14.70;;;-4.00;99.90;;;;;;5091861;28;20642;-57
2022/03/10 00:19:37;;;;;;;41.17;14.97;;;-3.90;99.90;;;;;;5089199;28;20573;-59
2022/03/10 00:22:03;;;;;;;30.93;13.60;;;-3.80;99.90;;;;;;5071296;28;20183;-57
2022/03/10 00:24:29;;;;;;;28.23;14.37;;;-3.70;99.90;;;;;;5071937;28;20191;-59
2022/03/10 00:26:55;;;;;;;36.03;14.30;;;-3.60;99.90;;;;;;5091230;28;20229;-62
2022/03/10 00:29:21;;;;;;;34.40;13.83;;;-3.60;99.90;;;;;;5091946;28;20207;-57
2022/03/10 00:31:47;;;;;;;32.63;14.23;;;-3.50;99.90;;;;;;5091960;28;20669;-56
2022/03/10 00:34:13;;;;;;;34.47;15.13;;;-3.50;99.90;;;;;;5091770;28;20210;-59
2022/03/10 00:36:39;;;;;;;34.50;15.40;;;-3.50;99.90;;;;;;5073892;28;20182;-58
2022/03/10 00:39:04;;;;;;;43.77;15.10;;;-3.50;99.90;;;;;;5091327;28;20549;-59
2022/03/10 00:41:30;;;;;;;30.13;13.80;;;-3.50;99.90;;;;;;5091791;28;20549;-59
2022/03/10 00:43:56;;;;;;;25.73;12.23;;;-3.50;99.90;;;;;;5091138;28;20219;-62
2022/03/10 00:46:22;;;;;;;35.70;13.50;;;-3.50;99.90;;;;;;5091925;28;20201;-56
2022/03/10 00:48:48;;;;;;;29.60;14.27;;;-3.50;99.90;;;;;;5092000;28;20266;-59
2022/03/10 00:51:14;;;;;;;31.23;14.00;;;-3.50;99.90;;;;;;5091255;28;20543;-57
2022/03/10 00:53:40;;;;;;;28.73;13.20;;;-3.40;99.90;;;;;;5090867;28;20208;-56
2022/03/10 00:56:05;;;;;;;27.53;12.83;;;-3.50;99.90;;;;;;5091309;28;20322;-58
2022/03/10 00:58:31;;;;;;;28.60;13.50;;;-3.40;99.90;;;;;;5091747;28;20276;-58
2022/03/10 01:00:57;;;;;;;26.57;11.87;;;-3.40;99.90;;;;;;5091251;28;20233;-61
2022/03/10 01:03:23;;;;;;;23.73;12.53;;;-3.40;99.90;;;;;;5091905;28;20178;-57
2022/03/10 01:05:49;;;;;;;23.40;11.53;;;-3.40;99.90;;;;;;5091520;28;20241;-57
2022/03/10 01:08:17;;;;;;;22.80;10.80;;;-3.40;99.90;;;;;;5073149;28;20181;-57
2022/03/10 01:10:42;;;;;;;21.47;10.27;;;-3.40;99.90;;;;;;5091459;28;20185;-57
2022/03/10 01:13:16;;;;;;;23.13;9.67;;;-3.40;99.90;;;;;;5091170;28;20274;-56
2022/03/10 01:15:45;;;;;;;23.07;10.17;;;-3.40;99.90;;;;;;5091610;28;20695;-58
2022/03/10 01:18:11;;;;;;;20.00;9.23;;;-3.40;99.90;;;;;;5091023;28;20546;-56
2022/03/10 01:20:37;;;;;;;21.07;10.40;;;-3.40;99.90;;;;;;5091327;28;20191;-57
2022/03/10 01:23:02;;;;;;;23.17;9.40;;;-3.30;99.90;;;;;;5090997;28;20240;-58
2022/03/10 01:25:28;;;;;;;23.73;9.93;;;-3.30;99.90;;;;;;5090947;28;20187;-54
2022/03/10 01:27:54;;;;;;;21.07;9.50;;;-3.30;99.90;;;;;;5091545;28;20211;-57
2022/03/10 01:30:20;;;;;;;22.43;9.13;;;-3.20;99.90;;;;;;5091140;28;20211;-59
2022/03/10 01:32:47;;;;;;;21.63;8.97;;;-3.20;99.90;;;;;;5091019;28;20258;-59
2022/03/10 01:35:13;;;;;;;19.00;8.53;;;-3.20;99.90;;;;;;5090780;28;20710;-58
2022/03/10 01:37:39;;;;;;;18.73;8.50;;;-3.20;99.90;;;;;;5073322;28;20576;-57
2022/03/10 01:40:10;;;;;;;19.87;9.30;;;-3.20;99.90;;;;;;5090769;28;20184;-58
2022/03/10 01:42:36;;;;;;;17.03;8.07;;;-3.20;99.90;;;;;;5091446;28;20207;-59
2022/03/10 01:45:03;;;;;;;23.57;9.27;;;-3.20;99.90;;;;;;5091047;28;20216;-56
2022/03/10 01:47:29;;;;;;;21.80;9.87;;;-3.20;99.90;;;;;;5091159;28;20191;-59
2022/03/10 01:49:55;;;;;;;20.00;9.13;;;-3.30;99.90;;;;;;5091264;28;20184;-57
2022/03/10 01:52:21;;;;;;;17.67;8.73;;;-3.20;99.90;;;;;;5072830;28;20187;-59
2022/03/10 01:54:47;;;;;;;11.67;5.47;;;-3.20;99.90;;;;;;5090896;28;20660;-56
2022/03/10 01:57:13;;;;;;;15.20;6.80;;;-3.10;99.90;;;;;;5091113;28;20172;-57
2022/03/10 01:59:42;;;;;;;15.33;7.23;;;-3.20;99.90;;;;;;5091387;28;20184;-57
2022/03/10 02:02:09;;;;;;;15.43;7.77;;;-3.20;99.90;;;;;;5090774;28;20210;-56
2022/03/10 02:04:35;;;;;;;17.40;7.20;;;-3.20;99.90;;;;;;5093014;28;20269;-57
2022/03/10 02:07:08;;;;;;;18.53;7.87;;;-3.30;99.90;;;;;;5094446;28;20699;-61
2022/03/10 02:12:19;;;;;;;17.30;8.30;;;-3.40;99.90;;;;;;5094414;28;20194;-57
2022/03/10 02:17:29;;;;;;;19.40;9.23;;;-3.50;99.90;;;;;;5094753;28;20249;-59
2022/03/10 02:19:57;;;;;;;23.53;9.47;;;-3.50;99.90;;;;;;5094227;28;20678;-57
2022/03/10 02:22:24;;;;;;;23.27;9.67;;;-3.60;99.90;;;;;;5094409;28;20179;-56
2022/03/10 02:24:51;;;;;;;20.20;9.40;;;-3.50;99.90;;;;;;5094519;28;20304;-58
2022/03/10 02:27:21;;;;;;;21.53;9.50;;;-3.50;99.90;;;;;;5094034;28;20531;-58
2022/03/10 02:29:50;;;;;;;18.27;8.67;;;-3.50;99.90;;;;;;5094146;28;20572;-58
2022/03/10 02:32:16;;;;;;;22.23;9.43;;;-3.40;99.90;;;;;;5093386;28;20312;-55
2022/03/10 02:34:42;;;;;;;15.70;7.90;;;-3.50;99.90;;;;;;5094554;28;20536;-58
2022/03/10 02:37:10;;;;;;;20.87;9.00;;;-3.40;99.90;;;;;;5059320;28;20187;-57
2022/03/10 02:39:36;;;;;;;16.83;8.27;;;-3.50;99.90;;;;;;5094440;28;20181;-58
2022/03/10 02:42:02;;;;;;;17.50;7.63;;;-3.40;99.90;;;;;;5076086;28;20275;-61
2022/03/10 02:44:28;;;;;;;17.50;8.00;;;-3.40;99.90;;;;;;5094211;28;20217;-58
2022/03/10 02:46:54;;;;;;;16.43;7.20;;;-3.40;99.90;;;;;;5093981;28;20179;-56
2022/03/10 02:49:19;;;;;;;21.97;7.80;;;-3.40;99.90;;;;;;5093634;28;20182;-58
2022/03/10 02:51:45;;;;;;;15.60;6.57;;;-3.40;99.90;;;;;;5094074;28;20190;-56
2022/03/10 02:54:11;;;;;;;20.10;6.93;;;-3.50;99.90;;;;;;5093512;28;20251;-57
2022/03/10 02:56:37;;;;;;;14.27;6.73;;;-3.50;99.90;;;;;;5093678;28;20539;-56
2022/03/10 02:59:03;;;;;;;17.23;6.80;;;-3.50;99.90;;;;;;5093811;28;20734;-61
2022/03/10 03:01:29;;;;;;;16.43;7.27;;;-3.40;99.90;;;;;;5093256;28;20195;-56
2022/03/10 03:03:55;;;;;;;12.30;5.97;;;-3.40;99.90;;;;;;5093915;28;20206;-56
2022/03/10 03:06:22;;;;;;;15.73;6.37;;;-3.40;99.90;;;;;;5093278;28;20179;-58
2022/03/10 03:08:48;;;;;;;13.83;5.70;;;-3.40;99.90;;;;;;5093696;28;20180;-56
2022/03/10 03:11:14;;;;;;;13.23;6.07;;;-3.40;99.90;;;;;;5093209;28;20185;-60
2022/03/10 03:13:40;;;;;;;15.77;6.23;;;-3.40;99.90;;;;;;5093300;28;20207;-57
2022/03/10 03:16:06;;;;;;;13.63;5.90;;;-3.40;99.90;;;;;;5092468;28;20574;-59
2022/03/10 03:18:31;;;;;;;13.67;5.90;;;-3.40;99.90;;;;;;5093630;28;20179;-57
2022/03/10 03:20:57;;;;;;;14.73;6.27;;;-3.40;99.90;;;;;;5075226;28;20471;-56
2022/03/10 03:23:23;;;;;;;15.73;6.60;;;-3.50;99.90;;;;;;5093156;28;20182;-58
2022/03/10 03:25:50;;;;;;;10.67;6.00;;;-3.50;99.90;;;;;;5093766;28;20252;-59
2022/03/10 03:28:16;;;;;;;13.40;5.27;;;-3.50;99.90;;;;;;5074626;28;20490;-58
2022/03/10 03:30:42;;;;;;;11.97;5.10;;;-3.50;99.90;;;;;;5092927;28;20183;-58
2022/03/10 03:33:09;;;;;;;15.93;6.73;;;-3.50;99.90;;;;;;5092821;28;20246;-57
2022/03/10 03:35:34;;;;;;;16.97;7.63;;;-3.50;99.90;;;;;;5093165;28;20313;-57
2022/03/10 03:38:00;;;;;;;12.77;5.53;;;-3.60;99.90;;;;;;5074976;28;20325;-57
2022/03/10 03:40:26;;;;;;;17.90;6.03;;;-3.50;99.90;;;;;;5092708;28;20265;-58
2022/03/10 03:42:52;;;;;;;18.60;7.10;;;-3.50;99.90;;;;;;5092707;28;20261;-59
2022/03/10 03:45:18;;;;;;;16.13;8.07;;;-3.50;99.90;;;;;;5092576;28;20200;-57
2022/03/10 03:47:44;;;;;;;15.50;6.97;;;-3.60;99.90;;;;;;5093008;28;20656;-56
2022/03/10 03:50:11;;;;;;;18.50;6.53;;;-3.60;99.90;;;;;;5092589;28;20252;-57
2022/03/10 03:52:37;;;;;;;21.07;7.23;;;-3.60;99.90;;;;;;5092813;28;20647;-58
2022/03/10 03:55:03;;;;;;;13.53;6.40;;;-3.60;99.90;;;;;;5092577;28;20260;-56
2022/03/10 03:57:29;;;;;;;16.33;7.47;;;-3.60;99.90;;;;;;5091882;28;20205;-58
2022/03/10 03:59:54;;;;;;;17.93;7.53;;;-3.70;99.90;;;;;;5092559;28;20186;-56
2022/03/10 04:02:20;;;;;;;16.77;7.77;;;-3.80;99.90;;;;;;5074061;28;20239;-57
2022/03/10 04:04:46;;;;;;;20.57;9.60;;;-3.80;99.90;;;;;;5092621;28;20618;-55
2022/03/10 04:07:12;;;;;;;20.37;8.93;;;-3.80;99.90;;;;;;5092141;28;20537;-57
2022/03/10 04:09:38;;;;;;;19.77;8.47;;;-3.80;99.90;;;;;;5092639;28;20175;-57
2022/03/10 04:12:04;;;;;;;24.60;9.53;;;-3.80;99.90;;;;;;5074154;28;20635;-58
2022/03/10 04:14:29;;;;;;;20.67;8.93;;;-3.80;99.90;;;;;;5091657;28;20218;-58
2022/03/10 04:16:55;;;;;;;17.40;8.13;;;-3.80;99.90;;;;;;5074140;28;20185;-52
2022/03/10 04:19:21;;;;;;;20.47;9.23;;;-3.90;99.90;;;;;;5092175;28;20186;-58
2022/03/10 04:21:47;;;;;;;21.43;9.43;;;-3.80;99.90;;;;;;5074179;28;20178;-54
2022/03/10 04:24:13;;;;;;;19.07;8.20;;;-3.90;99.90;;;;;;5057042;28;20229;-58
2022/03/10 04:26:39;;;;;;;17.00;7.97;;;-3.90;99.90;;;;;;5092163;28;20572;-56
2022/03/10 04:29:04;;;;;;;15.23;7.13;;;-3.80;99.90;;;;;;5090816;28;20265;-55
2022/03/10 04:31:30;;;;;;;17.53;8.27;;;-3.80;99.90;;;;;;5091430;28;20320;-57
2022/03/10 04:33:56;;;;;;;16.37;7.83;;;-3.80;99.90;;;;;;5091542;28;20708;-57
2022/03/10 04:36:23;;;;;;;17.67;8.40;;;-3.70;99.90;;;;;;5091369;28;20217;-59
2022/03/10 04:38:50;;;;;;;20.60;9.80;;;-3.70;99.90;;;;;;5091520;28;20528;-58
2022/03/10 04:41:16;;;;;;;17.50;8.03;;;-3.70;99.90;;;;;;5091003;28;20213;-56
2022/03/10 04:43:42;;;;;;;14.93;6.90;;;-3.70;99.90;;;;;;5091232;28;20622;-60
2022/03/10 04:46:08;;;;;;;18.80;8.57;;;-3.70;99.90;;;;;;5091933;28;20277;-58
2022/03/10 04:48:34;;;;;;;15.23;7.30;;;-3.70;99.90;;;;;;5073872;28;20580;-56
2022/03/10 04:51:00;;;;;;;19.30;7.93;;;-3.60;99.90;;;;;;5091764;28;20175;-56
2022/03/10 04:53:26;;;;;;;17.90;8.10;;;-3.60;99.90;;;;;;5091916;28;20182;-58
2022/03/10 04:55:52;;;;;;;16.07;6.93;;;-3.60;99.90;;;;;;5091592;28;20247;-57
2022/03/10 04:58:18;;;;;;;21.70;9.10;;;-3.60;99.90;;;;;;5091573;28;20239;-58
2022/03/10 05:00:44;;;;;;;19.93;7.73;;;-3.60;99.90;;;;;;5056675;28;20178;-55
2022/03/10 05:03:09;;;;;;;17.40;8.10;;;-3.60;99.90;;;;;;5073269;28;20178;-61
2022/03/10 05:05:35;;;;;;;18.80;8.57;;;-3.70;99.90;;;;;;5091331;28;20654;-57
2022/03/10 05:08:01;;;;;;;21.00;8.97;;;-3.70;99.90;;;;;;5091170;28;20548;-58
2022/03/10 05:10:27;;;;;;;29.57;9.50;;;-3.60;99.90;;;;;;5090717;28;20187;-59
2022/03/10 05:12:59;;;;;;;17.57;8.47;;;-3.60;99.90;;;;;;5072886;28;20190;-58
2022/03/10 05:15:32;;;;;;;20.43;9.17;;;-3.50;99.90;;;;;;5090358;28;20221;-59
2022/03/10 05:18:02;;;;;;;20.80;9.07;;;-3.50;99.90;;;;;;5091086;28;20183;-58
2022/03/10 05:20:28;;;;;;;17.67;9.27;;;-3.50;99.90;;;;;;5090466;28;20183;-57
2022/03/10 05:22:57;;;;;;;18.87;8.93;;;-3.50;99.90;;;;;;5090962;28;20170;-60
2022/03/10 05:25:25;;;;;;;30.43;9.67;;;-3.60;99.90;;;;;;5091029;28;20656;-57
2022/03/10 05:27:52;;;;;;;22.90;9.73;;;-3.50;99.90;;;;;;5091089;28;20257;-55
2022/03/10 05:30:19;;;;;;;19.50;9.50;;;-3.40;99.90;;;;;;5072101;28;20232;-58
2022/03/10 05:32:45;;;;;;;22.23;8.97;;;-3.40;99.90;;;;;;5090442;28;20619;-60
2022/03/10 05:35:14;;;;;;;28.17;10.13;;;-3.30;99.90;;;;;;5090548;28;20207;-59
2022/03/10 05:37:41;;;;;;;20.07;9.37;;;-3.30;99.90;;;;;;5090607;28;20188;-59
2022/03/10 05:40:12;;;;;;;23.33;10.13;;;-3.30;99.90;;;;;;5058794;28;20237;-59
2022/03/10 05:42:39;;;;;;;26.67;10.37;;;-3.30;99.90;;;;;;5094594;28;20580;-58
2022/03/10 05:45:06;;;;;;;24.00;10.17;;;-3.30;99.90;;;;;;5094360;28;20187;-59
2022/03/10 05:47:32;;;;;;;27.83;11.80;;;-3.20;99.90;;;;;;5094044;28;20221;-60
2022/03/10 05:49:58;;;;;;;29.50;12.50;;;-3.00;99.90;;;;;;5094330;28;20215;-58
2022/03/10 05:52:23;;;;;;;28.30;11.70;;;-2.80;99.90;;;;;;5093450;28;20232;-61
2022/03/10 05:54:49;;;;;;;29.77;11.33;;;-2.70;99.90;;;;;;5093994;28;20230;-60
2022/03/10 05:57:15;;;;;;;22.10;11.00;;;-2.70;99.90;;;;;;5093747;28;20191;-61
2022/03/10 05:59:41;;;;;;;22.67;10.50;;;-2.60;99.90;;;;;;5094178;28;20175;-60
2022/03/10 06:02:07;;;;;;;28.03;11.13;;;-2.60;99.90;;;;;;5094159;28;20192;-63
2022/03/10 06:04:33;;;;;;;24.40;9.63;;;-2.60;99.90;;;;;;5075355;28;20192;-65
2022/03/10 06:07:00;;;;;;;26.90;11.77;;;-2.50;99.90;;;;;;5094051;28;20184;-62
2022/03/10 06:09:26;;;;;;;28.17;10.77;;;-2.40;99.90;;;;;;5075176;28;20203;-63
2022/03/10 06:11:51;;;;;;;29.90;11.57;;;-2.30;99.90;;;;;;5093931;28;20183;-65
2022/03/10 06:14:18;;;;;;;18.00;7.60;;;-2.30;99.90;;;;;;5093467;28;20208;-62
2022/03/10 06:16:44;;;;;;;28.97;12.47;;;-2.30;99.90;;;;;;5093203;28;20248;-65
2022/03/10 06:19:10;;;;;;;26.23;10.53;;;-2.40;99.90;;;;;;5093510;28;20588;-64
2022/03/10 06:21:38;;;;;;;30.17;11.30;;;-2.40;99.90;;;;;;5072483;28;20186;-64
2022/03/10 06:24:05;;;;;;;37.57;11.93;;;-2.40;99.90;;;;;;5079749;28;20207;-67
2022/03/10 06:26:31;;;;;;;48.23;12.07;;;-2.40;99.90;;;;;;5049643;28;20453;-63
2022/03/10 06:28:57;;;;;;;26.20;10.27;;;-2.50;99.90;;;;;;5086307;28;20510;-64
2022/03/10 06:31:24;;;;;;;28.87;9.30;;;-2.50;99.90;;;;;;5081724;28;20720;-65
2022/03/10 06:33:51;;;;;;;37.23;12.13;;;-2.50;99.90;;;;;;5084747;28;20284;-62
2022/03/10 06:36:17;;;;;;;27.83;12.77;;;-2.60;99.90;;;;;;5076200;28;20208;-63
2022/03/10 06:38:43;;;;;;;32.70;10.93;;;-2.50;99.90;;;;;;5066190;28;20510;-63
2022/03/10 06:41:08;;;;;;;43.63;16.70;;;-2.40;99.90;;;;;;5086244;28;20202;-61
2022/03/10 06:43:34;;;;;;;22.27;10.60;;;-2.20;99.90;;;;;;5074834;28;20629;-64
2022/03/10 06:46:00;;;;;;;32.70;11.77;;;-2.10;99.90;;;;;;5091879;28;20632;-65
2022/03/10 06:48:26;;;;;;;30.50;12.33;;;-2.10;99.90;;;;;;5079264;28;20184;-62
2022/03/10 06:50:52;;;;;;;28.10;12.27;;;-2.20;99.90;;;;;;5091950;28;20216;-64
2022/03/10 06:53:17;;;;;;;38.07;12.83;;;-2.20;99.90;;;;;;5077683;28;20282;-63
2022/03/10 06:55:43;;;;;;;23.73;10.37;;;-2.20;99.90;;;;;;5074780;28;20294;-68
2022/03/10 06:58:09;;;;;;;27.43;10.63;;;-2.30;99.90;;;;;;5104829;28;20614;-66
2022/03/10 07:00:35;;;;;;;25.77;12.13;;;-2.40;99.90;;;;;;5092969;28;20187;-64
2022/03/10 07:03:00;;;;;;;34.20;14.43;;;-2.60;99.90;;;;;;5073093;28;20266;-62
2022/03/10 07:05:26;;;;;;;26.10;11.10;;;-2.70;99.90;;;;;;5090739;28;20805;-65
2022/03/10 07:07:52;;;;;;;38.13;15.90;;;-2.70;99.90;;;;;;5078156;28;20658;-63
2022/03/10 07:10:18;;;;;;;25.37;11.83;;;-2.50;99.90;;;;;;5092290;28;20681;-64
2022/03/10 07:12:43;;;;;;;39.97;16.13;;;-2.40;99.90;;;;;;5077449;28;20264;-65
2022/03/10 07:15:11;;;;;;;30.50;13.83;;;-2.40;99.90;;;;;;5092784;28;20207;-64
2022/03/10 07:17:38;;;;;;;39.60;17.27;;;-2.20;99.90;;;;;;5087032;28;20184;-66
2022/03/10 07:20:04;;;;;;;32.63;15.07;;;-2.00;99.90;;;;;;5092638;28;20211;-61
2022/03/10 07:22:30;;;;;;;34.63;13.80;;;-1.90;99.90;;;;;;5078362;28;20181;-62
2022/03/10 07:24:56;;;;;;;34.83;14.90;;;-1.80;99.90;;;;;;5090637;28;20374;-62
2022/03/10 07:27:22;;;;;;;39.97;14.37;;;-2.00;99.90;;;;;;5091033;28;20650;-62
2022/03/10 07:29:48;;;;;;;40.27;13.00;;;-1.90;99.90;;;;;;5070798;28;20525;-63
2022/03/10 07:32:14;;;;;;;34.70;13.83;;;-1.80;99.90;;;;;;5101700;28;20255;-61
2022/03/10 07:34:39;;;;;;;42.23;13.53;;;-1.60;99.90;;;;;;5112289;28;20220;-60
2022/03/10 07:37:05;;;;;;;27.63;13.27;;;-1.50;99.90;;;;;;5094801;28;20180;-63
2022/03/10 07:39:31;;;;;;;36.43;14.30;;;-1.50;99.90;;;;;;5093851;28;20184;-63
2022/03/10 07:41:57;;;;;;;42.27;15.47;;;-1.60;99.90;;;;;;5093659;28;20702;-63
2022/03/10 07:44:24;;;;;;;32.80;14.63;;;-1.60;99.90;;;;;;5077449;28;20268;-64
2022/03/10 07:46:50;;;;;;;37.47;14.27;;;-1.60;99.90;;;;;;5112486;28;20801;-63
2022/03/10 07:49:15;;;;;;;45.77;16.03;;;-1.60;99.90;;;;;;5112293;28;20266;-62
2022/03/10 07:51:42;;;;;;;30.03;13.40;;;-1.60;99.90;;;;;;5111785;28;20248;-65
2022/03/10 07:54:09;;;;;;;39.43;14.47;;;-1.70;99.90;;;;;;5091085;28;20191;-64
2022/03/10 07:56:35;;;;;;;43.97;13.97;;;-1.60;99.90;;;;;;5053227;28;20193;-65
2022/03/10 07:59:00;;;;;;;35.27;13.60;;;-1.60;99.90;;;;;;5052426;28;20297;-67
2022/03/10 08:01:26;;;;;;;33.13;13.60;;;-1.50;99.90;;;;;;5069022;28;20216;-62
2022/03/10 08:03:52;;;;;;;48.83;13.57;;;-1.30;99.90;;;;;;5070192;28;20416;-61
2022/03/10 08:06:18;;;;;;;25.47;10.40;;;-1.30;99.90;;;;;;5051706;28;20250;-61
2022/03/10 08:08:44;;;;;;;27.63;11.67;;;-1.30;99.90;;;;;;5070112;28;20185;-61
2022/03/10 08:11:11;;;;;;;27.33;12.07;;;-1.10;99.90;;;;;;5069046;28;20534;-62
2022/03/10 08:13:36;;;;;;;27.93;9.73;;;-0.80;99.90;;;;;;5070294;28;20185;-64
2022/03/10 08:16:03;;;;;;;31.50;12.60;;;-0.70;99.90;;;;;;5071252;28;20210;-62
2022/03/10 08:18:30;;;;;;;31.77;13.13;;;-0.70;99.90;;;;;;5086961;28;20613;-63
2022/03/10 08:20:59;;;;;;;33.57;13.10;;;-0.50;99.90;;;;;;5073248;28;20648;-67
2022/03/10 08:23:26;;;;;;;25.07;11.60;;;0.00;99.90;;;;;;5086773;28;20700;-61
2022/03/10 08:25:52;;;;;;;38.87;15.27;;;0.20;99.90;;;;;;5070606;28;20239;-61
2022/03/10 08:28:18;;;;;;;31.33;13.87;;;0.30;99.90;;;;;;5071430;28;20486;-69
2022/03/10 08:30:44;;;;;;;29.30;13.03;;;0.40;99.90;;;;;;5053072;28;20192;-71
2022/03/10 08:33:10;;;;;;;36.47;12.93;;;0.60;99.90;;;;;;5050359;28;20239;-72
2022/03/10 08:35:36;;;;;;;42.67;13.67;;;0.40;99.90;;;;;;5049506;28;20255;-73
2022/03/10 08:38:02;;;;;;;34.60;12.90;;;0.50;99.90;;;;;;5052499;28;20182;-69
2022/03/10 08:40:28;;;;;;;27.53;13.00;;;0.20;99.90;;;;;;5050749;28;20570;-70
2022/03/10 08:42:54;;;;;;;28.27;11.20;;;0.00;99.90;;;;;;5050030;28;20179;-74
2022/03/10 08:45:21;;;;;;;20.97;10.23;;;-0.40;99.90;;;;;;5049102;28;20666;-73
2022/03/10 08:47:47;;;;;;;43.87;12.27;;;-0.70;99.90;;;;;;5050922;28;20237;-74
2022/03/10 08:50:13;;;;;;;32.70;11.20;;;-0.80;99.90;;;;;;5049550;28;20234;-74
2022/03/10 08:52:39;;;;;;;30.63;11.83;;;-0.90;99.90;;;;;;5032866;28;20751;-63
2022/03/10 08:55:06;;;;;;;37.67;13.73;;;-0.80;99.90;;;;;;5050256;28;20213;-59
2022/03/10 08:57:33;;;;;;;26.77;12.43;;;-0.40;99.90;;;;;;5050413;28;20181;-59
2022/03/10 08:59:59;;;;;;;36.40;13.13;;;0.20;99.90;;;;;;5050834;28;20183;-60
2022/03/10 09:02:24;;;;;;;28.87;11.03;;;0.70;99.90;;;;;;5049220;28;20525;-63
2022/03/10 09:04:50;;;;;;;12.83;6.70;;;0.70;99.90;;;;;;5050266;28;20186;-62
2022/03/10 09:07:16;;;;;;;12.13;5.17;;;-0.20;99.90;;;;;;5032844;28;20185;-63
2022/03/10 09:09:42;;;;;;;13.43;4.83;;;-1.10;99.90;;;;;;5049038;28;20240;-64
2022/03/10 09:12:08;;;;;;;13.30;5.23;;;-1.80;99.90;;;;;;5032485;28;20209;-62
2022/03/10 09:14:34;;;;;;;16.33;6.40;;;-2.20;99.90;;;;;;5050681;28;20221;-63
2022/03/10 09:17:00;;;;;;;14.93;7.17;;;-2.30;99.90;;;;;;5057730;28;20199;-61
2022/03/10 09:19:26;;;;;;;17.60;8.40;;;-2.20;99.90;;;;;;5073804;28;20269;-62
2022/03/10 09:21:52;;;;;;;37.13;14.73;;;-2.00;99.90;;;;;;5072761;28;20196;-61
2022/03/10 09:24:18;;;;;;;26.57;9.20;;;-1.60;99.90;;;;;;5073541;28;20702;-63
2022/03/10 09:26:44;;;;;;;24.23;10.17;;;-1.30;99.90;;;;;;5074420;28;20260;-62
2022/03/10 09:29:11;;;;;;;31.37;11.50;;;-1.00;99.90;;;;;;5072924;28;20177;-62
2022/03/10 09:31:37;;;;;;;22.57;10.37;;;-0.90;99.90;;;;;;5075739;28;20301;-61
2022/03/10 09:34:04;;;;;;;31.23;12.87;;;-0.80;99.90;;;;;;5076357;28;20204;-65
2022/03/10 09:36:31;;;;;;;24.63;11.13;;;-0.70;99.90;;;;;;5094094;28;20191;-63
2022/03/10 09:38:56;;;;;;;26.27;11.80;;;-0.80;99.90;;;;;;5094741;28;20510;-63
2022/03/10 09:41:22;;;;;;;29.60;12.43;;;-0.50;99.90;;;;;;5076372;28;20177;-72
2022/03/10 09:43:49;;;;;;;40.20;12.03;;;-0.20;99.90;;;;;;5094618;28;20188;-63
2022/03/10 09:46:15;;;;;;;41.27;12.87;;;0.60;99.90;;;;;;5094348;28;20296;-64
2022/03/10 09:48:41;;;;;;;29.23;10.90;;;1.10;99.90;;;;;;5094268;28;20698;-62
2022/03/10 09:51:08;;;;;;;29.10;10.97;;;1.10;99.90;;;;;;5094255;28;20188;-61
2022/03/10 09:53:35;;;;;;;22.90;10.33;;;0.80;99.90;;;;;;5094228;28;20185;-62
2022/03/10 09:56:05;;;;;;;21.93;9.50;;;0.50;99.90;;;;;;5094810;28;20228;-63
2022/03/10 09:58:34;;;;;;;29.00;11.03;;;0.10;99.90;;;;;;5093907;28;20238;-62
2022/03/10 10:01:06;;;;;;;27.70;9.63;;;0.00;99.90;;;;;;5076031;28;20295;-62
2022/03/10 10:03:36;;;;;;;22.20;8.93;;;0.20;99.90;;;;;;5093826;28;20632;-61
2022/03/10 10:06:03;;;;;;;21.37;7.47;;;0.50;99.90;;;;;;5076051;28;20198;-61
2022/03/10 10:08:34;;;;;;;23.27;9.57;;;0.50;99.90;;;;;;5093374;28;20188;-62
2022/03/10 10:11:01;;;;;;;15.73;7.87;;;0.80;99.90;;;;;;5075875;28;20698;-63
2022/03/10 10:13:37;;;;;;;17.57;8.43;;;0.80;99.90;;;;;;5075646;28;20623;-64
2022/03/10 10:16:13;;;;;;;21.17;7.77;;;0.80;99.90;;;;;;5094129;28;20234;-63
2022/03/10 10:18:39;;;;;;;19.90;8.77;;;1.40;99.90;;;;;;5076178;28;20190;-62
2022/03/10 10:21:07;;;;;;;16.60;7.67;;;1.60;99.90;;;;;;5073373;28;20177;-63
2022/03/10 10:23:34;;;;;;;16.03;7.30;;;0.80;99.90;;;;;;5073796;28;20189;-62
2022/03/10 10:26:04;;;;;;;14.67;7.17;;;-0.20;99.90;;;;;;5056103;28;20193;-62
2022/03/10 10:28:43;;;;;;;12.67;6.83;;;-0.90;99.90;;;;;;5055310;28;20260;-61
2022/03/10 10:31:11;;;;;;;17.07;6.80;;;-1.50;99.90;;;;;;5055698;28;20639;-61
2022/03/10 10:34:01;;;;;;;19.87;7.27;;;-1.70;99.90;;;;;;5093335;28;20282;-61
2022/03/10 10:36:32;;;;;;;20.93;8.20;;;-1.70;99.90;;;;;;5079609;28;20200;-67
2022/03/10 10:39:17;;;;;;;34.67;8.93;;;-1.50;99.90;;;;;;5075331;28;20184;-63
2022/03/10 10:41:45;;;;;;;26.57;9.57;;;-1.10;99.90;;;;;;5093017;28;20255;-63
2022/03/10 10:44:16;;;;;;;12.47;5.67;;;-0.80;99.90;;;;;;5093901;28;20189;-64
2022/03/10 10:46:49;;;;;;;13.77;6.17;;;-0.60;99.90;;;;;;5093369;28;20268;-63
2022/03/10 10:49:17;;;;;;;11.63;6.77;;;0.00;99.90;;;;;;5075004;28;20249;-61
2022/03/10 10:51:57;;;;;;;12.80;6.90;;;0.10;99.90;;;;;;5074548;28;20275;-61
2022/03/10 10:54:29;;;;;;;13.30;6.90;;;0.60;99.90;;;;;;5093244;28;20235;-64
2022/03/10 10:56:56;;;;;;;17.67;6.57;;;0.70;99.90;;;;;;5093024;28;20271;-62
2022/03/10 10:59:32;;;;;;;19.60;6.70;;;1.20;99.90;;;;;;5092887;28;20243;-63
2022/03/10 11:02:06;;;;;;;18.47;6.80;;;1.30;99.90;;;;;;5093188;28;20254;-62
2022/03/10 11:04:32;;;;;;;14.07;6.33;;;1.70;99.90;;;;;;5092812;28;20290;-64
2022/03/10 11:06:58;;;;;;;15.63;6.93;;;1.70;99.90;;;;;;5092369;28;20277;-62
2022/03/10 11:09:25;;;;;;;10.43;5.07;;;1.50;99.90;;;;;;5092745;28;20722;-64
2022/03/10 11:11:52;;;;;;;13.53;5.30;;;1.50;99.90;;;;;;5074655;28;20189;-66
2022/03/10 11:14:19;;;;;;;13.07;5.73;;;1.60;99.90;;;;;;5057746;28;20261;-65
2022/03/10 11:16:46;;;;;;;9.17;4.63;;;1.40;99.90;;;;;;5092188;28;20218;-64
2022/03/10 11:19:17;;;;;;;14.33;7.37;;;1.30;99.90;;;;;;5074328;28;20191;-63
2022/03/10 11:22:08;;;;;;;13.10;6.37;;;0.70;99.90;;;;;;5092337;28;20544;-64
2022/03/10 11:24:54;;;;;;;11.03;5.20;;;0.70;99.90;;;;;;5092015;28;20215;-62
2022/03/10 11:27:26;;;;;;;15.17;7.47;;;0.40;99.90;;;;;;5092321;28;20211;-61
2022/03/10 11:29:54;;;;;;;17.20;7.17;;;0.60;99.90;;;;;;5091954;28;20202;-65
2022/03/10 11:32:28;;;;;;;12.60;6.77;;;0.80;99.90;;;;;;5073384;28;20239;-61
2022/03/10 11:35:00;;;;;;;13.47;7.10;;;0.60;99.90;;;;;;5091447;28;20193;-63
2022/03/10 11:37:46;;;;;;;15.40;6.43;;;1.00;99.90;;;;;;5091347;28;20249;-63
2022/03/10 11:40:17;;;;;;;14.43;5.97;;;1.30;99.90;;;;;;5091297;28;20246;-61
2022/03/10 11:42:43;;;;;;;24.13;7.53;;;1.20;99.90;;;;;;5091759;28;20201;-63
2022/03/10 11:45:17;;;;;;;12.40;6.50;;;1.50;99.90;;;;;;5092257;28;20194;-62
2022/03/10 11:47:43;;;;;;;21.43;10.20;;;0.90;99.90;;;;;;5092092;28;20233;-62
2022/03/10 11:50:24;;;;;;;19.17;9.90;;;0.00;99.90;;;;;;5075349;28;20185;-66
2022/03/10 11:53:01;;;;;;;18.63;8.93;;;-0.30;99.90;;;;;;5071558;28;20199;-62
2022/03/10 11:55:51;;;;;;;12.37;6.27;;;-0.60;99.90;;;;;;5072190;28;20247;-63
2022/03/10 11:58:31;;;;;;;13.17;6.03;;;-0.40;99.90;;;;;;5071475;28;20174;-63
2022/03/10 12:00:57;;;;;;;13.87;5.80;;;-0.50;99.90;;;;;;5053398;28;20645;-65
2022/03/10 12:03:28;;;;;;;13.17;5.27;;;-0.10;99.90;;;;;;5071520;28;20215;-62
2022/03/10 12:05:58;;;;;;;14.53;6.23;;;0.20;99.90;;;;;;5053324;28;20629;-63
2022/03/10 12:08:26;;;;;;;12.03;5.03;;;0.90;99.90;;;;;;5072118;28;20553;-61
2022/03/10 12:10:52;;;;;;;13.00;6.90;;;1.10;99.90;;;;;;5071036;28;20460;-62
2022/03/10 12:13:41;;;;;;;17.60;6.23;;;1.10;99.90;;;;;;5074086;28;20194;-64
2022/03/10 12:16:08;;;;;;;8.23;4.33;;;1.20;99.90;;;;;;5080594;28;20296;-63
2022/03/10 12:18:44;;;;;;;13.83;6.73;;;1.00;99.90;;;;;;5053956;28;20669;-65
2022/03/10 12:21:29;;;;;;;11.13;6.17;;;0.40;99.90;;;;;;5092468;28;20173;-64
2022/03/10 12:24:04;;;;;;;14.87;6.60;;;-0.20;99.90;;;;;;5091229;28;20173;-63
2022/03/10 12:26:31;;;;;;;15.50;6.57;;;-0.60;99.90;;;;;;5078813;28;20199;-63
2022/03/10 12:29:12;;;;;;;7.70;3.50;;;-0.40;99.90;;;;;;5069499;28;20641;-61
2022/03/10 12:31:40;;;;;;;11.90;4.37;;;-0.80;99.90;;;;;;5074938;28;20225;-62
2022/03/10 12:34:15;;;;;;;8.87;4.00;;;-0.70;99.90;;;;;;5066169;28;20193;-65
2022/03/10 12:36:49;;;;;;;11.03;5.37;;;-0.70;99.90;;;;;;5074896;28;20628;-65
2022/03/10 12:39:20;;;;;;;15.67;5.60;;;-0.60;99.90;;;;;;5084860;28;20200;-64
2022/03/10 12:41:51;;;;;;;9.83;4.77;;;0.00;99.90;;;;;;5074223;28;20181;-62